Current | Forecast
Updated: 11:00 AM JST on December 12, 2017
Observed at Mombetsu, Japan
Temperature 30°F
Windchill 18°F
Humidity 44%
Dew Point 10°F
Wind WSW at 18 mph
Pressure 29.36 in (Falling)
Conditions Scattered Clouds
Visibility 6.2 miles
UV 1 out of 16
Clouds (FEW) : 4000 ft
Scattered Clouds (SCT) : 10000 ft
Yesterday's Maximum 34°F
Yesterday's Minimum 30°F approx.
Yesterday's Heating Degree Days 33 approx.
Sunrise6:52 AM JST
Sunset3:47 PM JST
Moon Rise12:25 AM JST
Moon Set12:49 PM JST
Moon PhaseMoon Phase
Waning Crescent
Raw METARMETAR RJEB 120200Z 24016KT 9999 FEW040 SCT100 M01/M12 Q0994


Monday
. High: 71° F.
Tuesday
. High: 64° F.
Wednesday
. High: 55° F.
Thursday
. High: 66° F.
Friday
. High: 57° F.
Saturday
. High: 62° F.
Sunday
. High: 48° F.
Monday
. High: 46° F.

Units: English | Metric

Find the Weather for any City, State or Zipcode, or Country:

U.S. State List | Severe Weather | Tropical Storms | Ski Conditions
United States | Canada | Central America | South America | Asia | Europe | Australia | Africa | Islands

Weather Underground

© Copyright 2017
The Weather Company, LLC